sensor_id;sensor_type;location;lat;lon;timestamp;temperature;humidity
11650;DHT22;5881;48.522;7.682;2023-05-20T00:00:54;13.90;1.00
11650;DHT22;5881;48.522;7.682;2023-05-20T00:03:20;13.90;1.00
11650;DHT22;5881;48.522;7.682;2023-05-20T00:05:45;13.90;1.00
11650;DHT22;5881;48.522;7.682;2023-05-20T00:08:11;14.00;1.00
11650;DHT22;5881;48.522;7.682;2023-05-20T00:10:37;14.10;1.00
11650;DHT22;5881;48.522;7.682;2023-05-20T00:13:03;14.10;1.00
11650;DHT22;5881;48.522;7.682;2023-05-20T00:15:29;14.20;1.00
11650;DHT22;5881;48.522;7.682;2023-05-20T00:17:55;14.30;1.00
11650;DHT22;5881;48.522;7.682;2023-05-20T00:20:21;14.40;1.00
11650;DHT22;5881;48.522;7.682;2023-05-20T00:22:46;14.50;1.00
11650;DHT22;5881;48.522;7.682;2023-05-20T00:25:12;14.40;1.00
11650;DHT22;5881;48.522;7.682;2023-05-20T00:27:40;14.40;1.00
11650;DHT22;5881;48.522;7.682;2023-05-20T00:30:06;14.40;1.00
11650;DHT22;5881;48.522;7.682;2023-05-20T00:32:33;14.40;1.00
11650;DHT22;5881;48.522;7.682;2023-05-20T00:34:59;14.50;1.00
11650;DHT22;5881;48.522;7.682;2023-05-20T00:37:25;14.60;1.00
11650;DHT22;5881;48.522;7.682;2023-05-20T00:39:51;14.50;1.00
11650;DHT22;5881;48.522;7.682;2023-05-20T00:42:24;14.50;1.00
11650;DHT22;5881;48.522;7.682;2023-05-20T00:44:50;14.50;1.00
11650;DHT22;5881;48.522;7.682;2023-05-20T00:47:17;14.50;1.00
11650;DHT22;5881;48.522;7.682;2023-05-20T00:49:49;14.50;1.00
11650;DHT22;5881;48.522;7.682;2023-05-20T00:52:17;14.50;1.00
11650;DHT22;5881;48.522;7.682;2023-05-20T00:54:43;14.40;1.00
11650;DHT22;5881;48.522;7.682;2023-05-20T00:57:09;14.50;1.00
11650;DHT22;5881;48.522;7.682;2023-05-20T00:59:36;14.40;1.00
11650;DHT22;5881;48.522;7.682;2023-05-20T01:02:04;14.40;1.00
11650;DHT22;5881;48.522;7.682;2023-05-20T01:04:31;14.40;1.00
11650;DHT22;5881;48.522;7.682;2023-05-20T01:06:58;14.40;1.00
11650;DHT22;5881;48.522;7.682;2023-05-20T01:09:25;14.40;1.00
11650;DHT22;5881;48.522;7.682;2023-05-20T01:11:58;14.40;1.00
11650;DHT22;5881;48.522;7.682;2023-05-20T01:14:26;14.40;1.00
11650;DHT22;5881;48.522;7.682;2023-05-20T01:16:54;14.40;1.00
11650;DHT22;5881;48.522;7.682;2023-05-20T01:19:37;14.40;1.00
11650;DHT22;5881;48.522;7.682;2023-05-20T01:22:05;14.30;1.00
11650;DHT22;5881;48.522;7.682;2023-05-20T01:24:32;14.30;1.00
11650;DHT22;5881;48.522;7.682;2023-05-20T01:26:58;14.30;1.00
11650;DHT22;5881;48.522;7.682;2023-05-20T01:29:24;14.30;1.00
11650;DHT22;5881;48.522;7.682;2023-05-20T01:31:51;14.30;1.00
11650;DHT22;5881;48.522;7.682;2023-05-20T01:34:18;14.30;1.00
11650;DHT22;5881;48.522;7.682;2023-05-20T01:36:44;14.30;1.00
11650;DHT22;5881;48.522;7.682;2023-05-20T01:39:11;14.30;1.00
11650;DHT22;5881;48.522;7.682;2023-05-20T01:41:37;14.20;1.00
11650;DHT22;5881;48.522;7.682;2023-05-20T01:44:03;14.20;1.00
11650;DHT22;5881;48.522;7.682;2023-05-20T01:46:33;14.20;1.00
11650;DHT22;5881;48.522;7.682;2023-05-20T01:48:59;14.20;1.00
11650;DHT22;5881;48.522;7.682;2023-05-20T01:51:24;14.20;1.00
11650;DHT22;5881;48.522;7.682;2023-05-20T01:53:50;14.20;1.00
11650;DHT22;5881;48.522;7.682;2023-05-20T01:56:16;14.20;1.00
11650;DHT22;5881;48.522;7.682;2023-05-20T01:58:41;14.20;1.00
11650;DHT22;5881;48.522;7.682;2023-05-20T02:01:07;14.20;1.00
11650;DHT22;5881;48.522;7.682;2023-05-20T02:03:32;14.10;1.00
11650;DHT22;5881;48.522;7.682;2023-05-20T02:05:58;14.20;1.00
11650;DHT22;5881;48.522;7.682;2023-05-20T02:08:23;14.10;1.00
11650;DHT22;5881;48.522;7.682;2023-05-20T02:10:49;14.10;1.00
11650;DHT22;5881;48.522;7.682;2023-05-20T02:13:15;14.10;1.00
11650;DHT22;5881;48.522;7.682;2023-05-20T02:15:41;14.20;1.00
11650;DHT22;5881;48.522;7.682;2023-05-20T02:18:07;14.10;1.00
11650;DHT22;5881;48.522;7.682;2023-05-20T02:20:35;14.10;1.00
11650;DHT22;5881;48.522;7.682;2023-05-20T02:23:01;14.10;1.00
11650;DHT22;5881;48.522;7.682;2023-05-20T02:25:30;14.10;1.00
11650;DHT22;5881;48.522;7.682;2023-05-20T02:27:55;14.10;1.00
11650;DHT22;5881;48.522;7.682;2023-05-20T02:30:21;14.10;1.00
11650;DHT22;5881;48.522;7.682;2023-05-20T02:32:47;14.10;1.00
11650;DHT22;5881;48.522;7.682;2023-05-20T02:35:12;14.10;1.00
11650;DHT22;5881;48.522;7.682;2023-05-20T02:37:38;14.10;1.00
11650;DHT22;5881;48.522;7.682;2023-05-20T02:40:04;14.10;1.00
11650;DHT22;5881;48.522;7.682;2023-05-20T02:42:30;14.10;1.00
11650;DHT22;5881;48.522;7.682;2023-05-20T02:44:56;14.10;1.00
11650;DHT22;5881;48.522;7.682;2023-05-20T02:47:24;14.20;1.00
11650;DHT22;5881;48.522;7.682;2023-05-20T02:49:50;14.20;1.00
11650;DHT22;5881;48.522;7.682;2023-05-20T02:52:15;14.20;1.00
11650;DHT22;5881;48.522;7.682;2023-05-20T02:54:41;14.20;1.00
11650;DHT22;5881;48.522;7.682;2023-05-20T02:57:06;14.20;1.00
11650;DHT22;5881;48.522;7.682;2023-05-20T02:59:32;14.20;1.00
11650;DHT22;5881;48.522;7.682;2023-05-20T03:01:58;14.20;1.00
11650;DHT22;5881;48.522;7.682;2023-05-20T03:04:23;14.10;1.00
11650;DHT22;5881;48.522;7.682;2023-05-20T03:06:50;14.10;1.00
11650;DHT22;5881;48.522;7.682;2023-05-20T03:09:16;14.20;1.00
11650;DHT22;5881;48.522;7.682;2023-05-20T03:11:44;14.20;1.00
11650;DHT22;5881;48.522;7.682;2023-05-20T03:14:10;14.10;1.00
11650;DHT22;5881;48.522;7.682;2023-05-20T03:16:35;14.10;1.00
11650;DHT22;5881;48.522;7.682;2023-05-20T03:19:01;14.10;1.00
11650;DHT22;5881;48.522;7.682;2023-05-20T03:21:27;14.10;1.00
11650;DHT22;5881;48.522;7.682;2023-05-20T03:23:53;14.10;1.00
11650;DHT22;5881;48.522;7.682;2023-05-20T03:26:19;14.10;1.00
11650;DHT22;5881;48.522;7.682;2023-05-20T03:28:46;14.10;1.00
11650;DHT22;5881;48.522;7.682;2023-05-20T03:31:11;14.00;1.00
11650;DHT22;5881;48.522;7.682;2023-05-20T03:33:37;14.00;1.00
11650;DHT22;5881;48.522;7.682;2023-05-20T03:36:02;14.00;1.00
11650;DHT22;5881;48.522;7.682;2023-05-20T03:38:29;14.00;1.00
11650;DHT22;5881;48.522;7.682;2023-05-20T03:40:55;14.00;1.00
11650;DHT22;5881;48.522;7.682;2023-05-20T03:43:20;14.00;1.00
11650;DHT22;5881;48.522;7.682;2023-05-20T03:45:46;14.00;1.00
11650;DHT22;5881;48.522;7.682;2023-05-20T03:48:11;14.00;1.00
11650;DHT22;5881;48.522;7.682;2023-05-20T03:50:37;14.00;1.00
11650;DHT22;5881;48.522;7.682;2023-05-20T03:53:02;14.00;1.00
11650;DHT22;5881;48.522;7.682;2023-05-20T03:55:28;14.00;1.00
11650;DHT22;5881;48.522;7.682;2023-05-20T03:57:54;13.90;1.00
11650;DHT22;5881;48.522;7.682;2023-05-20T04:00:19;14.00;1.00
11650;DHT22;5881;48.522;7.682;2023-05-20T04:02:45;13.90;1.00
11650;DHT22;5881;48.522;7.682;2023-05-20T04:05:11;14.00;1.00
11650;DHT22;5881;48.522;7.682;2023-05-20T04:07:36;13.90;1.00
11650;DHT22;5881;48.522;7.682;2023-05-20T04:10:03;13.90;1.00
11650;DHT22;5881;48.522;7.682;2023-05-20T04:12:29;13.90;1.00
11650;DHT22;5881;48.522;7.682;2023-05-20T04:14:57;13.90;1.00
11650;DHT22;5881;48.522;7.682;2023-05-20T04:17:26;13.90;1.00
11650;DHT22;5881;48.522;7.682;2023-05-20T04:19:54;13.80;1.00
11650;DHT22;5881;48.522;7.682;2023-05-20T04:22:21;13.80;1.00
11650;DHT22;5881;48.522;7.682;2023-05-20T04:24:46;13.90;1.00
11650;DHT22;5881;48.522;7.682;2023-05-20T04:27:12;13.80;1.00
11650;DHT22;5881;48.522;7.682;2023-05-20T04:29:38;13.80;1.00
11650;DHT22;5881;48.522;7.682;2023-05-20T04:32:06;13.80;1.00
11650;DHT22;5881;48.522;7.682;2023-05-20T04:34:31;13.80;1.00
11650;DHT22;5881;48.522;7.682;2023-05-20T04:36:59;13.80;1.00
11650;DHT22;5881;48.522;7.682;2023-05-20T04:39:25;13.80;1.00
11650;DHT22;5881;48.522;7.682;2023-05-20T04:41:51;13.80;1.00
11650;DHT22;5881;48.522;7.682;2023-05-20T04:44:19;13.80;1.00
11650;DHT22;5881;48.522;7.682;2023-05-20T04:46:45;13.70;1.00
11650;DHT22;5881;48.522;7.682;2023-05-20T04:49:11;13.70;1.00
11650;DHT22;5881;48.522;7.682;2023-05-20T04:51:36;13.80;1.00
11650;DHT22;5881;48.522;7.682;2023-05-20T04:54:02;13.70;1.00
11650;DHT22;5881;48.522;7.682;2023-05-20T04:56:28;13.70;1.00
11650;DHT22;5881;48.522;7.682;2023-05-20T04:58:53;13.90;1.00
11650;DHT22;5881;48.522;7.682;2023-05-20T05:01:20;13.80;1.00
11650;DHT22;5881;48.522;7.682;2023-05-20T05:03:46;13.90;1.00
11650;DHT22;5881;48.522;7.682;2023-05-20T05:06:11;14.00;1.00
11650;DHT22;5881;48.522;7.682;2023-05-20T05:08:37;13.90;1.00
11650;DHT22;5881;48.522;7.682;2023-05-20T05:11:04;14.00;1.00
11650;DHT22;5881;48.522;7.682;2023-05-20T05:13:31;14.00;1.00
11650;DHT22;5881;48.522;7.682;2023-05-20T05:16:00;14.10;1.00
11650;DHT22;5881;48.522;7.682;2023-05-20T05:18:26;14.10;1.00
11650;DHT22;5881;48.522;7.682;2023-05-20T05:21:02;14.10;1.00
11650;DHT22;5881;48.522;7.682;2023-05-20T05:23:28;14.20;1.00
11650;DHT22;5881;48.522;7.682;2023-05-20T05:25:54;14.30;1.00
11650;DHT22;5881;48.522;7.682;2023-05-20T05:28:20;14.20;1.00
11650;DHT22;5881;48.522;7.682;2023-05-20T05:30:45;14.20;1.00
11650;DHT22;5881;48.522;7.682;2023-05-20T05:33:14;14.20;1.00
11650;DHT22;5881;48.522;7.682;2023-05-20T05:35:40;14.30;1.00
11650;DHT22;5881;48.522;7.682;2023-05-20T05:38:07;14.50;1.00
11650;DHT22;5881;48.522;7.682;2023-05-20T05:40:32;14.50;1.00
11650;DHT22;5881;48.522;7.682;2023-05-20T05:42:58;14.40;1.00
11650;DHT22;5881;48.522;7.682;2023-05-20T05:45:24;14.50;1.00
11650;DHT22;5881;48.522;7.682;2023-05-20T05:47:49;14.60;1.00
11650;DHT22;5881;48.522;7.682;2023-05-20T05:50:15;14.70;1.00
11650;DHT22;5881;48.522;7.682;2023-05-20T05:52:41;14.90;1.00
11650;DHT22;5881;48.522;7.682;2023-05-20T05:55:08;14.80;1.00
11650;DHT22;5881;48.522;7.682;2023-05-20T05:57:33;14.80;1.00
11650;DHT22;5881;48.522;7.682;2023-05-20T05:59:59;14.80;1.00
11650;DHT22;5881;48.522;7.682;2023-05-20T06:02:25;15.10;1.00
11650;DHT22;5881;48.522;7.682;2023-05-20T06:04:51;15.20;1.00
11650;DHT22;5881;48.522;7.682;2023-05-20T06:07:16;15.40;1.00
11650;DHT22;5881;48.522;7.682;2023-05-20T06:09:43;15.60;1.00
11650;DHT22;5881;48.522;7.682;2023-05-20T06:12:08;15.90;1.00
11650;DHT22;5881;48.522;7.682;2023-05-20T06:14:34;16.00;1.00
11650;DHT22;5881;48.522;7.682;2023-05-20T06:17:00;16.40;1.00
11650;DHT22;5881;48.522;7.682;2023-05-20T06:19:26;17.20;1.00
11650;DHT22;5881;48.522;7.682;2023-05-20T06:21:52;17.00;1.00
11650;DHT22;5881;48.522;7.682;2023-05-20T06:24:18;17.60;1.00
11650;DHT22;5881;48.522;7.682;2023-05-20T06:26:43;17.50;1.00
11650;DHT22;5881;48.522;7.682;2023-05-20T06:29:10;17.50;1.00
11650;DHT22;5881;48.522;7.682;2023-05-20T06:31:36;18.50;1.00
11650;DHT22;5881;48.522;7.682;2023-05-20T06:34:02;18.30;1.00
11650;DHT22;5881;48.522;7.682;2023-05-20T06:36:28;17.90;1.00
11650;DHT22;5881;48.522;7.682;2023-05-20T06:38:54;16.90;1.00
11650;DHT22;5881;48.522;7.682;2023-05-20T06:41:19;17.20;1.00
11650;DHT22;5881;48.522;7.682;2023-05-20T06:43:46;17.50;1.00
11650;DHT22;5881;48.522;7.682;2023-05-20T06:46:11;17.90;1.00
11650;DHT22;5881;48.522;7.682;2023-05-20T06:48:37;17.80;1.00
11650;DHT22;5881;48.522;7.682;2023-05-20T06:51:07;17.30;1.00
11650;DHT22;5881;48.522;7.682;2023-05-20T06:53:35;17.10;1.00
11650;DHT22;5881;48.522;7.682;2023-05-20T06:56:01;17.20;1.00
11650;DHT22;5881;48.522;7.682;2023-05-20T06:58:27;17.70;1.00
11650;DHT22;5881;48.522;7.682;2023-05-20T07:00:53;18.00;1.00
11650;DHT22;5881;48.522;7.682;2023-05-20T07:03:19;18.30;1.00
11650;DHT22;5881;48.522;7.682;2023-05-20T07:05:45;19.80;1.00
11650;DHT22;5881;48.522;7.682;2023-05-20T07:08:10;20.40;1.00
11650;DHT22;5881;48.522;7.682;2023-05-20T07:10:36;20.80;1.00
11650;DHT22;5881;48.522;7.682;2023-05-20T07:13:02;21.10;1.00
11650;DHT22;5881;48.522;7.682;2023-05-20T07:15:28;23.00;1.00
11650;DHT22;5881;48.522;7.682;2023-05-20T07:17:53;23.50;1.00
11650;DHT22;5881;48.522;7.682;2023-05-20T07:20:19;23.30;1.00
11650;DHT22;5881;48.522;7.682;2023-05-20T07:22:45;23.50;1.00
11650;DHT22;5881;48.522;7.682;2023-05-20T07:25:13;23.50;1.00
11650;DHT22;5881;48.522;7.682;2023-05-20T07:27:39;24.20;1.00
11650;DHT22;5881;48.522;7.682;2023-05-20T07:30:05;24.60;1.00
11650;DHT22;5881;48.522;7.682;2023-05-20T07:32:31;25.30;1.00
11650;DHT22;5881;48.522;7.682;2023-05-20T07:34:56;25.30;1.00
11650;DHT22;5881;48.522;7.682;2023-05-20T07:37:22;25.30;1.00
11650;DHT22;5881;48.522;7.682;2023-05-20T07:39:48;25.10;1.00
11650;DHT22;5881;48.522;7.682;2023-05-20T07:42:13;25.00;1.00
11650;DHT22;5881;48.522;7.682;2023-05-20T07:44:39;25.40;1.00
11650;DHT22;5881;48.522;7.682;2023-05-20T07:47:04;25.20;1.00
11650;DHT22;5881;48.522;7.682;2023-05-20T07:49:30;25.90;1.00
11650;DHT22;5881;48.522;7.682;2023-05-20T07:51:56;25.50;1.00
11650;DHT22;5881;48.522;7.682;2023-05-20T07:54:22;25.50;1.00
11650;DHT22;5881;48.522;7.682;2023-05-20T07:56:47;25.20;1.00
11650;DHT22;5881;48.522;7.682;2023-05-20T07:59:13;25.30;1.00
11650;DHT22;5881;48.522;7.682;2023-05-20T08:01:40;25.80;1.00
11650;DHT22;5881;48.522;7.682;2023-05-20T08:04:06;26.40;1.00
11650;DHT22;5881;48.522;7.682;2023-05-20T08:06:32;26.60;1.00
11650;DHT22;5881;48.522;7.682;2023-05-20T08:09:00;26.60;1.00
11650;DHT22;5881;48.522;7.682;2023-05-20T08:11:26;25.80;1.00
11650;DHT22;5881;48.522;7.682;2023-05-20T08:13:52;26.30;1.00
11650;DHT22;5881;48.522;7.682;2023-05-20T08:16:19;26.30;1.00
11650;DHT22;5881;48.522;7.682;2023-05-20T08:18:45;26.20;1.00
11650;DHT22;5881;48.522;7.682;2023-05-20T08:21:11;26.60;1.00
11650;DHT22;5881;48.522;7.682;2023-05-20T08:23:37;25.30;1.00
11650;DHT22;5881;48.522;7.682;2023-05-20T08:26:02;24.70;1.00
11650;DHT22;5881;48.522;7.682;2023-05-20T08:28:31;25.50;1.00
11650;DHT22;5881;48.522;7.682;2023-05-20T08:30:56;25.50;1.00
11650;DHT22;5881;48.522;7.682;2023-05-20T08:33:22;25.40;1.00
11650;DHT22;5881;48.522;7.682;2023-05-20T08:35:48;25.70;1.00
11650;DHT22;5881;48.522;7.682;2023-05-20T08:38:14;27.20;1.00
11650;DHT22;5881;48.522;7.682;2023-05-20T08:40:40;27.10;1.00
11650;DHT22;5881;48.522;7.682;2023-05-20T08:43:05;25.50;1.00
11650;DHT22;5881;48.522;7.682;2023-05-20T08:45:32;26.10;1.00
11650;DHT22;5881;48.522;7.682;2023-05-20T08:47:59;27.40;1.00
11650;DHT22;5881;48.522;7.682;2023-05-20T08:50:25;27.10;1.00
11650;DHT22;5881;48.522;7.682;2023-05-20T08:52:52;27.50;1.00
11650;DHT22;5881;48.522;7.682;2023-05-20T08:55:24;26.00;1.00
11650;DHT22;5881;48.522;7.682;2023-05-20T08:57:54;25.70;1.00
11650;DHT22;5881;48.522;7.682;2023-05-20T09:00:23;26.00;1.00
11650;DHT22;5881;48.522;7.682;2023-05-20T09:02:53;26.10;1.00
11650;DHT22;5881;48.522;7.682;2023-05-20T09:05:19;26.60;1.00
11650;DHT22;5881;48.522;7.682;2023-05-20T09:07:45;27.10;1.00
11650;DHT22;5881;48.522;7.682;2023-05-20T09:10:12;27.80;1.00
11650;DHT22;5881;48.522;7.682;2023-05-20T09:12:38;27.80;1.00
11650;DHT22;5881;48.522;7.682;2023-05-20T09:15:04;27.90;1.00
11650;DHT22;5881;48.522;7.682;2023-05-20T09:17:30;27.00;1.00
11650;DHT22;5881;48.522;7.682;2023-05-20T09:19:56;24.70;1.00
11650;DHT22;5881;48.522;7.682;2023-05-20T09:22:22;25.80;1.00
11650;DHT22;5881;48.522;7.682;2023-05-20T09:24:49;24.90;1.00
11650;DHT22;5881;48.522;7.682;2023-05-20T09:27:15;25.20;1.00
11650;DHT22;5881;48.522;7.682;2023-05-20T09:29:41;25.10;1.00
11650;DHT22;5881;48.522;7.682;2023-05-20T09:32:09;25.50;1.00
11650;DHT22;5881;48.522;7.682;2023-05-20T09:34:36;27.00;1.00
11650;DHT22;5881;48.522;7.682;2023-05-20T09:37:02;25.80;1.00
11650;DHT22;5881;48.522;7.682;2023-05-20T09:39:34;25.20;1.00
11650;DHT22;5881;48.522;7.682;2023-05-20T09:42:05;26.40;1.00
11650;DHT22;5881;48.522;7.682;2023-05-20T09:44:33;25.40;1.00
11650;DHT22;5881;48.522;7.682;2023-05-20T09:47:00;27.00;1.00
11650;DHT22;5881;48.522;7.682;2023-05-20T09:49:27;26.70;1.00
11650;DHT22;5881;48.522;7.682;2023-05-20T09:51:55;25.20;1.00
11650;DHT22;5881;48.522;7.682;2023-05-20T09:54:22;24.30;1.00
11650;DHT22;5881;48.522;7.682;2023-05-20T09:56:50;24.10;1.00
11650;DHT22;5881;48.522;7.682;2023-05-20T09:59:16;23.60;1.00
11650;DHT22;5881;48.522;7.682;2023-05-20T10:01:43;24.70;1.00
11650;DHT22;5881;48.522;7.682;2023-05-20T10:04:09;25.70;1.00
11650;DHT22;5881;48.522;7.682;2023-05-20T10:07:30;26.30;1.00
11650;DHT22;5881;48.522;7.682;2023-05-20T10:10:04;25.50;1.00
11650;DHT22;5881;48.522;7.682;2023-05-20T10:13:02;24.30;1.00
11650;DHT22;5881;48.522;7.682;2023-05-20T10:16:04;24.40;1.00
11650;DHT22;5881;48.522;7.682;2023-05-20T10:18:49;26.40;1.00
11650;DHT22;5881;48.522;7.682;2023-05-20T10:21:20;27.40;1.00
11650;DHT22;5881;48.522;7.682;2023-05-20T10:23:49;26.50;1.00
11650;DHT22;5881;48.522;7.682;2023-05-20T10:26:15;25.00;1.00
11650;DHT22;5881;48.522;7.682;2023-05-20T10:28:40;25.30;1.00
11650;DHT22;5881;48.522;7.682;2023-05-20T10:31:21;26.70;1.00
11650;DHT22;5881;48.522;7.682;2023-05-20T10:33:47;26.90;1.00
11650;DHT22;5881;48.522;7.682;2023-05-20T10:36:25;28.50;1.00
11650;DHT22;5881;48.522;7.682;2023-05-20T10:38:58;28.30;1.00
11650;DHT22;5881;48.522;7.682;2023-05-20T10:41:25;28.20;1.00
11650;DHT22;5881;48.522;7.682;2023-05-20T10:44:02;26.30;1.00
11650;DHT22;5881;48.522;7.682;2023-05-20T10:46:32;26.30;1.00
11650;DHT22;5881;48.522;7.682;2023-05-20T10:49:01;26.10;1.00
11650;DHT22;5881;48.522;7.682;2023-05-20T10:51:34;26.50;1.00
11650;DHT22;5881;48.522;7.682;2023-05-20T10:54:00;26.50;1.00
11650;DHT22;5881;48.522;7.682;2023-05-20T10:56:26;27.20;1.00
11650;DHT22;5881;48.522;7.682;2023-05-20T10:58:53;26.10;1.00
11650;DHT22;5881;48.522;7.682;2023-05-20T11:01:23;25.80;1.00
11650;DHT22;5881;48.522;7.682;2023-05-20T11:03:49;25.70;1.00
11650;DHT22;5881;48.522;7.682;2023-05-20T11:06:18;25.00;1.00
11650;DHT22;5881;48.522;7.682;2023-05-20T11:08:45;25.30;1.00
11650;DHT22;5881;48.522;7.682;2023-05-20T11:11:11;25.30;1.00
11650;DHT22;5881;48.522;7.682;2023-05-20T11:13:37;24.80;1.00
11650;DHT22;5881;48.522;7.682;2023-05-20T11:16:04;24.50;1.00
11650;DHT22;5881;48.522;7.682;2023-05-20T11:18:32;24.30;1.00
11650;DHT22;5881;48.522;7.682;2023-05-20T11:20:58;24.40;1.00
11650;DHT22;5881;48.522;7.682;2023-05-20T11:23:26;24.80;1.00
11650;DHT22;5881;48.522;7.682;2023-05-20T11:25:53;24.80;1.00
11650;DHT22;5881;48.522;7.682;2023-05-20T11:28:19;24.10;1.00
11650;DHT22;5881;48.522;7.682;2023-05-20T11:30:49;24.50;1.00
11650;DHT22;5881;48.522;7.682;2023-05-20T11:33:16;24.50;1.00
11650;DHT22;5881;48.522;7.682;2023-05-20T11:38:11;24.80;1.00
11650;DHT22;5881;48.522;7.682;2023-05-20T11:40:42;24.60;1.00
11650;DHT22;5881;48.522;7.682;2023-05-20T11:43:10;24.70;1.00
11650;DHT22;5881;48.522;7.682;2023-05-20T11:45:41;24.20;1.00
11650;DHT22;5881;48.522;7.682;2023-05-20T11:48:07;25.00;1.00
11650;DHT22;5881;48.522;7.682;2023-05-20T11:50:35;24.80;1.00
11650;DHT22;5881;48.522;7.682;2023-05-20T11:53:04;24.00;1.00
11650;DHT22;5881;48.522;7.682;2023-05-20T11:55:34;24.30;1.00
11650;DHT22;5881;48.522;7.682;2023-05-20T11:58:08;24.90;1.00
11650;DHT22;5881;48.522;7.682;2023-05-20T12:00:34;24.90;1.00
11650;DHT22;5881;48.522;7.682;2023-05-20T12:03:00;24.30;1.00
11650;DHT22;5881;48.522;7.682;2023-05-20T12:05:25;24.90;1.00
11650;DHT22;5881;48.522;7.682;2023-05-20T12:07:51;25.40;1.00
11650;DHT22;5881;48.522;7.682;2023-05-20T12:10:17;25.20;1.00
11650;DHT22;5881;48.522;7.682;2023-05-20T12:12:43;25.10;1.00
11650;DHT22;5881;48.522;7.682;2023-05-20T12:15:10;25.00;1.00
11650;DHT22;5881;48.522;7.682;2023-05-20T12:17:47;24.70;1.00
11650;DHT22;5881;48.522;7.682;2023-05-20T12:20:14;24.50;1.00
11650;DHT22;5881;48.522;7.682;2023-05-20T12:22:41;24.40;1.00
11650;DHT22;5881;48.522;7.682;2023-05-20T12:25:08;24.30;1.00
11650;DHT22;5881;48.522;7.682;2023-05-20T12:27:33;24.30;1.00
11650;DHT22;5881;48.522;7.682;2023-05-20T12:29:59;23.90;1.00
11650;DHT22;5881;48.522;7.682;2023-05-20T12:32:24;24.00;1.00
11650;DHT22;5881;48.522;7.682;2023-05-20T12:34:50;23.90;1.00
11650;DHT22;5881;48.522;7.682;2023-05-20T12:37:16;23.90;1.00
11650;DHT22;5881;48.522;7.682;2023-05-20T12:39:41;24.30;1.00
11650;DHT22;5881;48.522;7.682;2023-05-20T12:42:07;24.60;1.00
11650;DHT22;5881;48.522;7.682;2023-05-20T12:44:33;24.70;1.00
11650;DHT22;5881;48.522;7.682;2023-05-20T12:46:59;24.20;1.00
11650;DHT22;5881;48.522;7.682;2023-05-20T12:49:24;24.30;1.00
11650;DHT22;5881;48.522;7.682;2023-05-20T12:51:50;24.50;1.00
11650;DHT22;5881;48.522;7.682;2023-05-20T12:54:16;24.50;1.00
11650;DHT22;5881;48.522;7.682;2023-05-20T12:56:42;25.10;1.00
11650;DHT22;5881;48.522;7.682;2023-05-20T12:59:12;24.70;1.00
11650;DHT22;5881;48.522;7.682;2023-05-20T13:01:38;25.40;1.00
11650;DHT22;5881;48.522;7.682;2023-05-20T13:04:04;25.20;1.00
11650;DHT22;5881;48.522;7.682;2023-05-20T13:06:30;25.60;1.00
11650;DHT22;5881;48.522;7.682;2023-05-20T13:08:56;24.80;1.00
11650;DHT22;5881;48.522;7.682;2023-05-20T13:11:21;24.30;1.00
11650;DHT22;5881;48.522;7.682;2023-05-20T13:13:47;24.50;1.00
11650;DHT22;5881;48.522;7.682;2023-05-20T13:16:13;24.80;1.00
11650;DHT22;5881;48.522;7.682;2023-05-20T13:18:41;24.70;1.00
11650;DHT22;5881;48.522;7.682;2023-05-20T13:21:06;25.10;1.00
11650;DHT22;5881;48.522;7.682;2023-05-20T13:23:32;24.20;1.00
11650;DHT22;5881;48.522;7.682;2023-05-20T13:25:58;24.20;1.00
11650;DHT22;5881;48.522;7.682;2023-05-20T13:28:24;24.40;1.00
11650;DHT22;5881;48.522;7.682;2023-05-20T13:30:50;24.10;1.00
11650;DHT22;5881;48.522;7.682;2023-05-20T13:33:15;24.00;1.00
11650;DHT22;5881;48.522;7.682;2023-05-20T13:35:41;23.80;1.00
11650;DHT22;5881;48.522;7.682;2023-05-20T13:38:06;23.60;1.00
11650;DHT22;5881;48.522;7.682;2023-05-20T13:40:32;23.90;1.00
11650;DHT22;5881;48.522;7.682;2023-05-20T13:42:58;24.00;1.00
11650;DHT22;5881;48.522;7.682;2023-05-20T13:45:23;23.80;1.00
11650;DHT22;5881;48.522;7.682;2023-05-20T13:47:49;23.70;1.00
11650;DHT22;5881;48.522;7.682;2023-05-20T13:50:15;23.60;1.00
11650;DHT22;5881;48.522;7.682;2023-05-20T13:52:41;23.60;1.00
11650;DHT22;5881;48.522;7.682;2023-05-20T13:55:07;23.60;1.00
11650;DHT22;5881;48.522;7.682;2023-05-20T13:57:32;24.00;1.00
11650;DHT22;5881;48.522;7.682;2023-05-20T13:59:58;24.10;1.00
11650;DHT22;5881;48.522;7.682;2023-05-20T14:02:24;24.00;1.00
11650;DHT22;5881;48.522;7.682;2023-05-20T14:04:49;24.30;1.00
11650;DHT22;5881;48.522;7.682;2023-05-20T14:07:15;24.20;1.00
11650;DHT22;5881;48.522;7.682;2023-05-20T14:09:40;24.40;1.00
11650;DHT22;5881;48.522;7.682;2023-05-20T14:12:06;24.20;1.00
11650;DHT22;5881;48.522;7.682;2023-05-20T14:14:32;23.70;1.00
11650;DHT22;5881;48.522;7.682;2023-05-20T14:16:57;23.80;1.00
11650;DHT22;5881;48.522;7.682;2023-05-20T14:19:23;23.60;1.00
11650;DHT22;5881;48.522;7.682;2023-05-20T14:21:48;23.60;1.00
11650;DHT22;5881;48.522;7.682;2023-05-20T14:24:14;23.70;1.00
11650;DHT22;5881;48.522;7.682;2023-05-20T14:26:40;23.90;1.00
11650;DHT22;5881;48.522;7.682;2023-05-20T14:29:05;23.80;1.00
11650;DHT22;5881;48.522;7.682;2023-05-20T14:31:31;23.30;1.00
11650;DHT22;5881;48.522;7.682;2023-05-20T14:33:57;23.50;1.00
11650;DHT22;5881;48.522;7.682;2023-05-20T14:36:22;23.70;1.00
11650;DHT22;5881;48.522;7.682;2023-05-20T14:38:48;23.70;1.00
11650;DHT22;5881;48.522;7.682;2023-05-20T14:41:14;23.60;1.00
11650;DHT22;5881;48.522;7.682;2023-05-20T14:43:39;23.30;1.00
11650;DHT22;5881;48.522;7.682;2023-05-20T14:46:05;23.20;1.00
11650;DHT22;5881;48.522;7.682;2023-05-20T14:48:31;23.20;1.00
11650;DHT22;5881;48.522;7.682;2023-05-20T14:50:56;23.40;1.00
11650;DHT22;5881;48.522;7.682;2023-05-20T14:53:22;23.50;1.00
11650;DHT22;5881;48.522;7.682;2023-05-20T14:55:47;23.30;1.00
11650;DHT22;5881;48.522;7.682;2023-05-20T14:58:13;23.30;1.00
11650;DHT22;5881;48.522;7.682;2023-05-20T15:00:39;23.20;1.00
11650;DHT22;5881;48.522;7.682;2023-05-20T15:03:04;23.60;1.00
11650;DHT22;5881;48.522;7.682;2023-05-20T15:05:30;23.50;1.00
11650;DHT22;5881;48.522;7.682;2023-05-20T15:07:56;23.40;1.00
11650;DHT22;5881;48.522;7.682;2023-05-20T15:10:22;23.20;1.00
11650;DHT22;5881;48.522;7.682;2023-05-20T15:12:47;23.40;1.00
11650;DHT22;5881;48.522;7.682;2023-05-20T15:15:13;23.30;1.00
11650;DHT22;5881;48.522;7.682;2023-05-20T15:17:39;23.20;1.00
11650;DHT22;5881;48.522;7.682;2023-05-20T15:20:05;23.20;1.00
11650;DHT22;5881;48.522;7.682;2023-05-20T15:22:31;23.00;1.00
11650;DHT22;5881;48.522;7.682;2023-05-20T15:24:56;23.20;1.00
11650;DHT22;5881;48.522;7.682;2023-05-20T15:27:22;23.00;1.00
11650;DHT22;5881;48.522;7.682;2023-05-20T15:29:47;22.90;1.00
11650;DHT22;5881;48.522;7.682;2023-05-20T15:32:13;23.00;1.00
11650;DHT22;5881;48.522;7.682;2023-05-20T15:34:39;22.90;1.00
11650;DHT22;5881;48.522;7.682;2023-05-20T15:37:05;22.90;1.00
11650;DHT22;5881;48.522;7.682;2023-05-20T15:39:30;22.90;1.00
11650;DHT22;5881;48.522;7.682;2023-05-20T15:41:56;22.80;1.00
11650;DHT22;5881;48.522;7.682;2023-05-20T15:44:24;22.80;1.00
11650;DHT22;5881;48.522;7.682;2023-05-20T15:46:49;23.00;1.00
11650;DHT22;5881;48.522;7.682;2023-05-20T15:49:15;22.90;1.00
11650;DHT22;5881;48.522;7.682;2023-05-20T15:51:40;22.80;1.00
11650;DHT22;5881;48.522;7.682;2023-05-20T15:54:06;22.70;1.00
11650;DHT22;5881;48.522;7.682;2023-05-20T15:56:32;22.70;1.00
11650;DHT22;5881;48.522;7.682;2023-05-20T15:58:58;22.80;1.00
11650;DHT22;5881;48.522;7.682;2023-05-20T16:01:23;22.70;1.00